Time;durP1;ratioP1;P1;durP2;ratioP2;P2;SDS_P1;SDS_P2;PMS_P1;PMS_P2;Temp;Humidity;BMP_temperature;BMP_pressure;BME280_temperature;BME280_humidity;BME280_pressure;Samples;Min_cycle;Max_cycle;Signal;HPM_P1;HPM_P2
2023/09/25 00:01:43;;;;;;;13.80;12.75;;;;;;;;;;5009364;28;20037;-58
2023/09/25 00:04:08;;;;;;;13.93;12.82;;;;;;;;;;5010486;28;20105;-58
2023/09/25 00:06:33;;;;;;;13.77;12.57;;;;;;;;;;5004087;28;20419;-59
2023/09/25 00:08:58;;;;;;;9.50;8.63;;;;;;;;;;5008856;28;20034;-58
2023/09/25 00:11:24;;;;;;;9.82;8.95;;;;;;;;;;5011648;28;20040;-58
2023/09/25 00:13:49;;;;;;;9.83;9.03;;;;;;;;;;5010178;28;20026;-58
2023/09/25 00:16:16;;;;;;;18.53;17.00;;;;;;;;;;5008888;28;20052;-57
2023/09/25 00:18:43;;;;;;;25.88;24.13;;;;;;;;;;5006843;28;20056;-58
2023/09/25 00:21:08;;;;;;;11.93;11.02;;;;;;;;;;5009006;28;20060;-58
2023/09/25 00:23:34;;;;;;;38.70;36.20;;;;;;;;;;5011303;28;20046;-58
2023/09/25 00:26:02;;;;;;;12.77;11.87;;;;;;;;;;5000490;28;20398;-58
2023/09/25 00:28:28;;;;;;;16.48;15.27;;;;;;;;;;5006500;28;20033;-60
2023/09/25 00:30:53;;;;;;;13.05;12.00;;;;;;;;;;5007105;28;20374;-59
2023/09/25 00:33:18;;;;;;;18.77;17.40;;;;;;;;;;5012162;28;20072;-59
2023/09/25 00:35:43;;;;;;;11.03;10.07;;;;;;;;;;5009935;28;20396;-58
2023/09/25 00:38:08;;;;;;;8.30;7.43;;;;;;;;;;5011697;28;20070;-59
2023/09/25 00:40:36;;;;;;;13.63;12.57;;;;;;;;;;5002243;28;20028;-57
2023/09/25 00:43:01;;;;;;;13.50;12.38;;;;;;;;;;5011971;28;20493;-60
2023/09/25 00:45:26;;;;;;;10.87;9.93;;;;;;;;;;5017445;28;20029;-57
2023/09/25 00:47:51;;;;;;;12.07;11.10;;;;;;;;;;5016126;28;20022;-57
2023/09/25 00:50:16;;;;;;;10.40;9.43;;;;;;;;;;5015875;28;20501;-58
2023/09/25 00:52:43;;;;;;;9.20;8.40;;;;;;;;;;5023032;28;20033;-57
2023/09/25 00:55:08;;;;;;;11.68;8.27;;;;;;;;;;5023219;28;20017;-59
2023/09/25 00:57:43;;;;;;;10.35;9.43;;;;;;;;;;5022806;28;20147;-59
2023/09/25 01:00:11;;;;;;;9.65;8.82;;;;;;;;;;5020295;28;20041;-56
2023/09/25 01:02:40;;;;;;;10.90;10.02;;;;;;;;;;5024343;28;20462;-59
2023/09/25 01:05:08;;;;;;;8.70;7.93;;;;;;;;;;5017447;28;20025;-57
2023/09/25 01:07:34;;;;;;;10.18;9.32;;;;;;;;;;5014349;28;20026;-59
2023/09/25 01:10:04;;;;;;;9.02;8.05;;;;;;;;;;5022165;28;20025;-59
2023/09/25 01:12:29;;;;;;;9.02;8.30;;;;;;;;;;5025837;28;20125;-58
2023/09/25 01:14:54;;;;;;;9.67;8.77;;;;;;;;;;5021699;28;20025;-59
2023/09/25 01:17:20;;;;;;;8.88;8.07;;;;;;;;;;5027591;28;20038;-58
2023/09/25 01:19:45;;;;;;;17.53;16.27;;;;;;;;;;5020705;28;20045;-59
2023/09/25 01:22:10;;;;;;;8.45;7.65;;;;;;;;;;5021401;28;20034;-59
2023/09/25 01:24:36;;;;;;;13.63;12.57;;;;;;;;;;5025684;28;20216;-58
2023/09/25 01:27:01;;;;;;;11.48;10.48;;;;;;;;;;5011990;28;20060;-58
2023/09/25 01:29:26;;;;;;;8.90;8.05;;;;;;;;;;5026368;28;20033;-58
2023/09/25 01:31:51;;;;;;;8.87;8.07;;;;;;;;;;5013657;28;20056;-58
2023/09/25 01:34:16;;;;;;;11.77;10.77;;;;;;;;;;5010966;28;20014;-58
2023/09/25 01:36:41;;;;;;;19.50;17.95;;;;;;;;;;5006814;28;20497;-59
2023/09/25 01:39:08;;;;;;;8.20;7.47;;;;;;;;;;5008839;28;20022;-59
2023/09/25 01:41:33;;;;;;;8.88;7.97;;;;;;;;;;5009803;28;20034;-59
2023/09/25 01:43:58;;;;;;;17.03;15.80;;;;;;;;;;5007764;28;20102;-59
2023/09/25 01:46:23;;;;;;;10.80;9.83;;;;;;;;;;5003754;28;20022;-59
2023/09/25 01:48:49;;;;;;;9.20;8.40;;;;;;;;;;5005177;28;20064;-58
2023/09/25 01:51:14;;;;;;;8.55;7.75;;;;;;;;;;5008232;28;20101;-59
2023/09/25 01:53:39;;;;;;;13.57;12.52;;;;;;;;;;5010115;28;20026;-59
2023/09/25 01:56:11;;;;;;;23.23;21.50;;;;;;;;;;5007554;28;20026;-58
2023/09/25 01:58:37;;;;;;;10.20;9.25;;;;;;;;;;5011338;28;20021;-58
2023/09/25 02:01:02;;;;;;;12.32;11.18;;;;;;;;;;5013470;28;20556;-58
2023/09/25 02:03:27;;;;;;;8.88;8.10;;;;;;;;;;5014896;28;20018;-59
2023/09/25 02:05:55;;;;;;;12.95;11.80;;;;;;;;;;5013612;28;20097;-58
2023/09/25 02:08:20;;;;;;;14.93;13.82;;;;;;;;;;5013779;28;20042;-59
2023/09/25 02:10:46;;;;;;;17.40;16.15;;;;;;;;;;5014130;28;20367;-57
2023/09/25 02:13:11;;;;;;;7.20;6.53;;;;;;;;;;5013499;28;20092;-57
2023/09/25 02:15:36;;;;;;;11.75;10.70;;;;;;;;;;5014167;28;20081;-57
2023/09/25 02:18:03;;;;;;;8.40;7.60;;;;;;;;;;5013698;28;20045;-57
2023/09/25 02:20:28;;;;;;;10.85;10.05;;;;;;;;;;5012951;28;20022;-58
2023/09/25 02:22:53;;;;;;;8.30;7.43;;;;;;;;;;5013142;28;20041;-57
2023/09/25 02:25:18;;;;;;;9.93;8.93;;;;;;;;;;5014523;28;20169;-58
2023/09/25 02:27:43;;;;;;;8.30;7.40;;;;;;;;;;5013404;28;20037;-59
2023/09/25 02:30:10;;;;;;;13.30;12.17;;;;;;;;;;5009366;28;20030;-59
2023/09/25 02:32:36;;;;;;;12.25;11.32;;;;;;;;;;5013871;28;20022;-59
2023/09/25 02:35:01;;;;;;;6.85;6.22;;;;;;;;;;5012585;28;20017;-60
2023/09/25 02:37:26;;;;;;;10.88;9.93;;;;;;;;;;5012617;28;20029;-58
2023/09/25 02:39:52;;;;;;;12.43;11.43;;;;;;;;;;5013498;28;20022;-58
2023/09/25 02:42:17;;;;;;;9.33;8.53;;;;;;;;;;5013191;28;20049;-59
2023/09/25 02:44:42;;;;;;;11.73;10.75;;;;;;;;;;5012675;28;20018;-57
2023/09/25 02:47:07;;;;;;;10.60;9.70;;;;;;;;;;5012896;28;20074;-59
2023/09/25 02:49:32;;;;;;;11.13;10.20;;;;;;;;;;5013432;28;20032;-58
2023/09/25 02:51:57;;;;;;;9.67;8.87;;;;;;;;;;5012703;28;20461;-57
2023/09/25 02:54:23;;;;;;;10.85;9.98;;;;;;;;;;5013755;28;20022;-58
2023/09/25 02:56:48;;;;;;;13.70;12.63;;;;;;;;;;5012984;28;20548;-59
2023/09/25 02:59:13;;;;;;;13.80;12.77;;;;;;;;;;5009712;28;20014;-57
2023/09/25 03:01:38;;;;;;;8.13;7.43;;;;;;;;;;5010510;28;20022;-58
2023/09/25 03:04:03;;;;;;;27.67;25.73;;;;;;;;;;5012392;28;20026;-59
2023/09/25 03:06:29;;;;;;;11.97;10.93;;;;;;;;;;5008964;28;20042;-58
2023/09/25 03:08:54;;;;;;;15.70;14.52;;;;;;;;;;5012560;28;20595;-57
2023/09/25 03:11:19;;;;;;;12.83;11.83;;;;;;;;;;5006691;28;20366;-60
2023/09/25 03:13:44;;;;;;;11.87;10.93;;;;;;;;;;5022665;28;20104;-59
2023/09/25 03:16:16;;;;;;;9.57;8.77;;;;;;;;;;5012166;28;20030;-58
2023/09/25 03:18:41;;;;;;;12.43;11.50;;;;;;;;;;5011898;28;20085;-58
2023/09/25 03:21:10;;;;;;;13.13;12.13;;;;;;;;;;5009403;28;20461;-59
2023/09/25 03:23:35;;;;;;;8.65;7.93;;;;;;;;;;5024895;28;20376;-59
2023/09/25 03:26:01;;;;;;;9.50;8.63;;;;;;;;;;5013570;28;20026;-59
2023/09/25 03:28:26;;;;;;;10.07;9.23;;;;;;;;;;5012101;28;20087;-58
2023/09/25 03:30:52;;;;;;;8.23;7.43;;;;;;;;;;5009586;28;20025;-58
2023/09/25 03:33:18;;;;;;;7.33;6.10;;;;;;;;;;5013235;28;20014;-58
2023/09/25 03:35:43;;;;;;;9.30;7.20;;;;;;;;;;5010048;28;20021;-58
2023/09/25 03:38:09;;;;;;;20.77;18.60;;;;;;;;;;5012607;28;20050;-59
2023/09/25 03:40:34;;;;;;;17.67;16.20;;;;;;;;;;5011753;28;20030;-59
2023/09/25 03:42:59;;;;;;;33.47;31.20;;;;;;;;;;5013339;28;20033;-59
2023/09/25 03:45:24;;;;;;;9.33;8.53;;;;;;;;;;5013178;28;20028;-59
2023/09/25 03:47:50;;;;;;;28.57;26.60;;;;;;;;;;5013435;28;20043;-61
2023/09/25 03:50:15;;;;;;;14.63;13.50;;;;;;;;;;5010118;28;20076;-59
2023/09/25 03:52:40;;;;;;;14.87;13.67;;;;;;;;;;5012691;28;20033;-59
2023/09/25 03:55:05;;;;;;;15.97;14.80;;;;;;;;;;5011781;28;20104;-59
2023/09/25 03:57:30;;;;;;;13.50;12.47;;;;;;;;;;5012645;28;20014;-59
2023/09/25 03:59:56;;;;;;;20.20;18.85;;;;;;;;;;5012122;28;20464;-58
2023/09/25 04:02:21;;;;;;;15.87;14.67;;;;;;;;;;5013887;28;20030;-59
2023/09/25 04:04:46;;;;;;;15.60;14.30;;;;;;;;;;5012460;28;20028;-59
2023/09/25 04:07:11;;;;;;;20.80;19.33;;;;;;;;;;5008917;28;20028;-59
2023/09/25 04:09:36;;;;;;;12.73;11.73;;;;;;;;;;5015954;28;20093;-59
2023/09/25 04:12:02;;;;;;;35.17;32.87;;;;;;;;;;5009443;28;20029;-59
2023/09/25 04:14:35;;;;;;;20.73;19.33;;;;;;;;;;5016845;28;20245;-58
2023/09/25 04:17:01;;;;;;;31.20;29.15;;;;;;;;;;5008682;28;20108;-59
2023/09/25 04:19:26;;;;;;;16.88;15.68;;;;;;;;;;5011073;28;20018;-59
2023/09/25 04:21:52;;;;;;;20.73;19.23;;;;;;;;;;5009959;28;20040;-58
2023/09/25 04:24:17;;;;;;;19.98;17.90;;;;;;;;;;5007881;28;20025;-59
2023/09/25 04:26:43;;;;;;;19.03;17.60;;;;;;;;;;5008614;28;20401;-57
2023/09/25 04:29:17;;;;;;;18.05;16.75;;;;;;;;;;5018265;28;20081;-57
2023/09/25 04:31:42;;;;;;;28.38;26.33;;;;;;;;;;5005714;28;20072;-59
2023/09/25 04:34:10;;;;;;;19.03;17.77;;;;;;;;;;5004832;28;20017;-58
2023/09/25 04:36:35;;;;;;;14.55;12.45;;;;;;;;;;5008134;28;20020;-57
2023/09/25 04:39:00;;;;;;;27.33;15.60;;;;;;;;;;4998960;28;20026;-59
2023/09/25 04:41:26;;;;;;;17.13;14.87;;;;;;;;;;5013052;28;20026;-58
2023/09/25 04:43:52;;;;;;;23.13;21.45;;;;;;;;;;5014378;28;20030;-58
2023/09/25 04:46:18;;;;;;;15.70;14.32;;;;;;;;;;5010329;28;20430;-57
2023/09/25 04:48:43;;;;;;;10.40;9.43;;;;;;;;;;5006248;28;20041;-59
2023/09/25 04:51:08;;;;;;;13.32;11.38;;;;;;;;;;5013187;28;20022;-57
2023/09/25 04:53:34;;;;;;;30.80;28.02;;;;;;;;;;5008736;28;20038;-59
2023/09/25 04:55:59;;;;;;;17.05;15.80;;;;;;;;;;5016119;28;20038;-56
2023/09/25 04:58:24;;;;;;;17.08;15.75;;;;;;;;;;5004464;28;20022;-57
2023/09/25 05:00:49;;;;;;;19.57;18.03;;;;;;;;;;5011255;28;20052;-59
2023/09/25 05:03:15;;;;;;;21.13;19.70;;;;;;;;;;5017055;28;20060;-56
2023/09/25 05:05:40;;;;;;;13.30;12.20;;;;;;;;;;5016150;28;20524;-58
2023/09/25 05:08:05;;;;;;;15.57;14.43;;;;;;;;;;5017126;28;20056;-57
2023/09/25 05:10:30;;;;;;;25.48;23.80;;;;;;;;;;5011515;28;20025;-58
2023/09/25 05:12:56;;;;;;;14.70;13.50;;;;;;;;;;5008642;28;20525;-57
2023/09/25 05:15:21;;;;;;;11.13;10.20;;;;;;;;;;5018728;28;20036;-58
2023/09/25 05:17:46;;;;;;;15.55;14.38;;;;;;;;;;5011383;28;20021;-58
2023/09/25 05:20:16;;;;;;;16.58;15.40;;;;;;;;;;5020001;28;20034;-60
2023/09/25 05:22:42;;;;;;;20.15;18.73;;;;;;;;;;5009383;28;20026;-60
2023/09/25 05:25:08;;;;;;;17.92;16.42;;;;;;;;;;5022955;28;20017;-58
2023/09/25 05:27:34;;;;;;;30.75;28.67;;;;;;;;;;5018078;28;20371;-57
2023/09/25 05:29:59;;;;;;;34.78;32.50;;;;;;;;;;5020957;28;20067;-59
2023/09/25 05:32:24;;;;;;;18.98;17.65;;;;;;;;;;5019497;28;20022;-57
2023/09/25 05:34:49;;;;;;;39.15;36.58;;;;;;;;;;5020995;28;20041;-59
2023/09/25 05:37:15;;;;;;;22.15;20.52;;;;;;;;;;5024289;28;20033;-57
2023/09/25 05:39:40;;;;;;;15.50;14.30;;;;;;;;;;5021955;28;20021;-58
2023/09/25 05:42:05;;;;;;;13.40;12.37;;;;;;;;;;5017509;28;20033;-59
2023/09/25 05:44:30;;;;;;;15.00;13.83;;;;;;;;;;5015931;28;20034;-57
2023/09/25 05:46:55;;;;;;;18.43;17.07;;;;;;;;;;5005098;28;20068;-57
2023/09/25 05:49:20;;;;;;;12.47;11.40;;;;;;;;;;5006011;28;20539;-57
2023/09/25 05:51:46;;;;;;;19.15;17.77;;;;;;;;;;5010278;28;20478;-57
2023/09/25 05:54:11;;;;;;;43.20;40.03;;;;;;;;;;5019003;28;20036;-57
2023/09/25 05:56:36;;;;;;;21.20;19.63;;;;;;;;;;5018140;28;20025;-58
2023/09/25 05:59:02;;;;;;;23.45;21.80;;;;;;;;;;5014250;28;20013;-57
2023/09/25 06:01:28;;;;;;;15.48;14.32;;;;;;;;;;5016993;28;20069;-57
2023/09/25 06:03:54;;;;;;;20.33;18.75;;;;;;;;;;5020249;28;20048;-57
2023/09/25 06:06:19;;;;;;;16.55;15.27;;;;;;;;;;5009945;28;20033;-58
2023/09/25 06:08:45;;;;;;;16.95;15.40;;;;;;;;;;5017945;28;20065;-58
2023/09/25 06:11:10;;;;;;;40.53;36.60;;;;;;;;;;5030354;28;20076;-57
2023/09/25 06:13:35;;;;;;;19.40;17.75;;;;;;;;;;5018277;28;20052;-57
2023/09/25 06:16:00;;;;;;;16.40;15.02;;;;;;;;;;5015748;28;20017;-58
2023/09/25 06:18:26;;;;;;;16.50;15.03;;;;;;;;;;5024951;28;20034;-57
2023/09/25 06:20:51;;;;;;;14.40;13.30;;;;;;;;;;5022393;28;20124;-57
2023/09/25 06:23:16;;;;;;;14.90;13.75;;;;;;;;;;5006173;28;20041;-56
2023/09/25 06:25:42;;;;;;;19.27;17.80;;;;;;;;;;5012017;28;20121;-57
2023/09/25 06:28:08;;;;;;;22.67;21.00;;;;;;;;;;5017532;28;20025;-56
2023/09/25 06:30:34;;;;;;;17.45;16.15;;;;;;;;;;5012873;28;20029;-57
2023/09/25 06:32:59;;;;;;;19.13;17.60;;;;;;;;;;5011699;28;20045;-59
2023/09/25 06:35:25;;;;;;;14.05;12.88;;;;;;;;;;5016608;28;20024;-57
2023/09/25 06:37:50;;;;;;;14.97;13.77;;;;;;;;;;5019765;28;20021;-58
2023/09/25 06:40:16;;;;;;;28.60;26.67;;;;;;;;;;5022942;28;20120;-57
2023/09/25 06:42:42;;;;;;;21.65;19.92;;;;;;;;;;5015256;28;20573;-57
2023/09/25 06:45:08;;;;;;;22.17;20.27;;;;;;;;;;5023130;28;20049;-59
2023/09/25 06:47:33;;;;;;;21.98;20.38;;;;;;;;;;5026818;28;20447;-59
2023/09/25 06:49:59;;;;;;;32.13;29.88;;;;;;;;;;5013739;28;20014;-59
2023/09/25 06:52:24;;;;;;;39.27;36.73;;;;;;;;;;5020891;28;20021;-56
2023/09/25 06:54:49;;;;;;;83.40;78.10;;;;;;;;;;5018205;28;20437;-59
2023/09/25 06:57:14;;;;;;;98.78;92.60;;;;;;;;;;5022850;28;20111;-59
2023/09/25 06:59:39;;;;;;;17.98;16.52;;;;;;;;;;5019864;28;20017;-59
2023/09/25 07:02:05;;;;;;;32.58;30.30;;;;;;;;;;5025728;28;20026;-60
2023/09/25 07:04:31;;;;;;;14.20;13.05;;;;;;;;;;5027888;28;20018;-57
2023/09/25 07:06:56;;;;;;;21.13;19.63;;;;;;;;;;5024342;28;20034;-57
2023/09/25 07:09:22;;;;;;;45.80;42.65;;;;;;;;;;5028073;28;20389;-59
2023/09/25 07:11:47;;;;;;;31.65;29.35;;;;;;;;;;5025148;28;20544;-57
2023/09/25 07:14:13;;;;;;;14.57;13.47;;;;;;;;;;5024960;28;20108;-57
2023/09/25 07:16:38;;;;;;;22.60;20.97;;;;;;;;;;5025809;28;20516;-57
2023/09/25 07:19:03;;;;;;;27.37;25.43;;;;;;;;;;5024305;28;20463;-57
2023/09/25 07:21:28;;;;;;;19.03;17.50;;;;;;;;;;5030763;28;20025;-57
2023/09/25 07:23:53;;;;;;;45.50;42.57;;;;;;;;;;5023503;28;20481;-58
2023/09/25 07:26:19;;;;;;;15.98;14.55;;;;;;;;;;5024139;28;20444;-59
2023/09/25 07:28:45;;;;;;;18.50;17.15;;;;;;;;;;5030169;28;20072;-57
2023/09/25 07:31:11;;;;;;;17.83;16.42;;;;;;;;;;5016674;28;20017;-57
2023/09/25 07:33:36;;;;;;;18.00;16.63;;;;;;;;;;5019241;28;20079;-58
2023/09/25 07:36:03;;;;;;;50.00;46.63;;;;;;;;;;5024289;28;20013;-58
2023/09/25 07:38:28;;;;;;;22.88;21.17;;;;;;;;;;5029545;28;20037;-57
2023/09/25 07:40:54;;;;;;;27.50;25.60;;;;;;;;;;5023126;28;20026;-57
2023/09/25 07:43:19;;;;;;;26.42;24.65;;;;;;;;;;5033459;28;20104;-59
2023/09/25 07:45:47;;;;;;;27.98;26.13;;;;;;;;;;5020651;28;20421;-58
2023/09/25 07:48:12;;;;;;;81.60;76.43;;;;;;;;;;5013347;28;20060;-58
2023/09/25 07:50:38;;;;;;;93.25;87.43;;;;;;;;;;5017093;28;20026;-58
2023/09/25 07:53:03;;;;;;;100.85;94.25;;;;;;;;;;4997461;28;20101;-58
2023/09/25 07:55:28;;;;;;;79.55;74.78;;;;;;;;;;5020962;28;20024;-59
2023/09/25 07:57:54;;;;;;;19.95;18.55;;;;;;;;;;5019520;28;20136;-58
2023/09/25 08:00:30;;;;;;;33.80;31.67;;;;;;;;;;5023901;28;20433;-58
2023/09/25 08:02:55;;;;;;;49.20;46.17;;;;;;;;;;5005006;28;20363;-58
2023/09/25 08:05:22;;;;;;;37.37;34.97;;;;;;;;;;5024707;28;20024;-59
2023/09/25 08:07:48;;;;;;;33.22;31.17;;;;;;;;;;5024046;28;20429;-58
2023/09/25 08:10:14;;;;;;;59.65;55.88;;;;;;;;;;5018305;28;20033;-60
2023/09/25 08:12:39;;;;;;;36.17;34.08;;;;;;;;;;5010073;28;20119;-58
2023/09/25 08:15:06;;;;;;;58.35;54.78;;;;;;;;;;5018850;28;20159;-58
2023/09/25 08:17:31;;;;;;;29.40;27.38;;;;;;;;;;5000005;28;20030;-57
2023/09/25 08:19:56;;;;;;;62.63;58.87;;;;;;;;;;5009180;28;20014;-58
2023/09/25 08:22:22;;;;;;;25.45;23.83;;;;;;;;;;5011401;28;20021;-59
2023/09/25 08:24:47;;;;;;;27.08;25.33;;;;;;;;;;5017790;28;20032;-57
2023/09/25 08:27:12;;;;;;;33.13;30.93;;;;;;;;;;5032533;28;20079;-58
2023/09/25 08:29:37;;;;;;;19.00;17.67;;;;;;;;;;5014128;28;20018;-59
2023/09/25 08:32:03;;;;;;;69.67;65.23;;;;;;;;;;5014280;28;20477;-59
2023/09/25 08:34:28;;;;;;;31.67;29.60;;;;;;;;;;5021356;28;20448;-57
2023/09/25 08:36:53;;;;;;;47.03;44.17;;;;;;;;;;5011501;28;20472;-59
2023/09/25 08:39:18;;;;;;;38.05;35.50;;;;;;;;;;5022906;28;20014;-59
2023/09/25 08:41:45;;;;;;;54.03;50.60;;;;;;;;;;5022754;28;20470;-57
2023/09/25 08:44:10;;;;;;;;;;;;;;;;;;5024463;28;20426;-59
2023/09/25 08:46:35;;;;;;;93.30;87.70;;;;;;;;;;5023206;28;19948;-59
2023/09/25 08:49:02;;;;;;;78.40;73.27;;;;;;;;;;5020056;28;20025;-59
2023/09/25 08:51:33;;;;;;;31.55;29.45;;;;;;;;;;5012763;28;20013;-58
2023/09/25 08:53:58;;;;;;;65.63;61.35;;;;;;;;;;5006057;28;20654;-58
2023/09/25 08:56:24;;;;;;;48.13;45.07;;;;;;;;;;5019861;28;20064;-60
2023/09/25 08:58:49;;;;;;;177.27;166.10;;;;;;;;;;5024631;28;20095;-59
2023/09/25 09:01:16;;;;;;;208.68;193.85;;;;;;;;;;5024753;28;20021;-58
2023/09/25 09:03:41;;;;;;;106.07;98.55;;;;;;;;;;5029025;28;20645;-59
2023/09/25 09:06:06;;;;;;;82.88;78.18;;;;;;;;;;5019946;28;20029;-58
2023/09/25 09:08:31;;;;;;;104.38;98.10;;;;;;;;;;5010400;28;20111;-59
2023/09/25 09:10:56;;;;;;;88.60;83.53;;;;;;;;;;5021369;28;20026;-59
2023/09/25 09:13:22;;;;;;;64.93;61.20;;;;;;;;;;5010800;28;20103;-59
2023/09/25 09:15:47;;;;;;;110.68;103.50;;;;;;;;;;5020962;28;20140;-59
2023/09/25 09:18:17;;;;;;;145.10;135.80;;;;;;;;;;5013893;28;20033;-58
2023/09/25 09:20:42;;;;;;;110.18;102.50;;;;;;;;;;5007496;28;20044;-58
2023/09/25 09:23:09;;;;;;;212.33;196.90;;;;;;;;;;5023340;28;20100;-57
2023/09/25 09:25:35;;;;;;;131.05;122.38;;;;;;;;;;5026532;28;20116;-58
2023/09/25 09:28:00;;;;;;;53.10;49.65;;;;;;;;;;5020202;28;20033;-56
2023/09/25 09:30:26;;;;;;;34.00;31.90;;;;;;;;;;5018504;28;20018;-58
2023/09/25 09:32:51;;;;;;;43.47;40.97;;;;;;;;;;5020762;28;20485;-60
2023/09/25 09:35:25;;;;;;;124.57;115.18;;;;;;;;;;5019573;28;20080;-59
2023/09/25 09:37:52;;;;;;;119.90;112.18;;;;;;;;;;5024575;28;20551;-58
2023/09/25 09:40:17;;;;;;;90.53;84.88;;;;;;;;;;5008901;28;20032;-58
2023/09/25 09:42:43;;;;;;;127.88;119.55;;;;;;;;;;5022192;28;20041;-59
2023/09/25 09:45:08;;;;;;;191.43;179.30;;;;;;;;;;5023346;28;20493;-59
2023/09/25 09:47:41;;;;;;;76.53;72.15;;;;;;;;;;5027696;28;20025;-58
2023/09/25 09:50:08;;;;;;;244.75;224.82;;;;;;;;;;5010578;28;20018;-59
2023/09/25 09:52:34;;;;;;;63.67;59.75;;;;;;;;;;5017946;28;20030;-59
2023/09/25 09:55:00;;;;;;;148.02;138.50;;;;;;;;;;5019237;28;20416;-59
2023/09/25 09:57:25;;;;;;;241.55;223.38;;;;;;;;;;5011331;28;20483;-58
2023/09/25 09:59:51;;;;;;;90.25;84.53;;;;;;;;;;4995950;28;20018;-59
2023/09/25 10:02:17;;;;;;;160.25;149.27;;;;;;;;;;5022418;28;20073;-59
2023/09/25 10:04:42;;;;;;;262.42;243.20;;;;;;;;;;5027590;28;20497;-59
2023/09/25 10:07:08;;;;;;;237.70;219.53;;;;;;;;;;5022639;28;20013;-59
2023/09/25 10:09:33;;;;;;;;;;;;;;;;;;5022376;28;20472;-59
2023/09/25 10:11:58;;;;;;;86.82;81.00;;;;;;;;;;5018703;28;19948;-57
2023/09/25 10:14:25;;;;;;;180.53;168.10;;;;;;;;;;5014335;28;20107;-59
2023/09/25 10:16:50;;;;;;;;;;;;;;;;;;5015784;28;20048;-60
2023/09/25 10:19:19;;;;;;;213.18;199.05;;;;;;;;;;5025304;28;20392;-60
2023/09/25 10:22:04;;;;;;;187.20;174.23;;;;;;;;;;5030066;28;20088;-57
2023/09/25 10:24:29;;;;;;;192.85;179.43;;;;;;;;;;5026120;28;20096;-58
2023/09/25 10:26:54;;;;;;;150.43;140.37;;;;;;;;;;5027410;28;20049;-58
2023/09/25 10:29:19;;;;;;;193.80;180.30;;;;;;;;;;5018890;28;20089;-60
2023/09/25 10:31:48;;;;;;;230.97;214.17;;;;;;;;;;5013096;28;20041;-59
2023/09/25 10:34:13;;;;;;;225.35;210.30;;;;;;;;;;5016708;28;20022;-60
2023/09/25 10:36:43;;;;;;;130.40;122.55;;;;;;;;;;5014061;28;20104;-58
2023/09/25 10:39:09;;;;;;;189.13;175.52;;;;;;;;;;5022004;28;20014;-60
2023/09/25 10:41:35;;;;;;;271.27;249.93;;;;;;;;;;5020971;28;20065;-59
2023/09/25 10:44:00;;;;;;;294.10;271.33;;;;;;;;;;5024247;28;20024;-60
2023/09/25 10:46:25;;;;;;;259.40;241.20;;;;;;;;;;5025620;28;20018;-60
2023/09/25 10:48:51;;;;;;;267.97;247.73;;;;;;;;;;5024160;28;20476;-59
2023/09/25 10:51:16;;;;;;;175.10;164.00;;;;;;;;;;5025545;28;20017;-60
2023/09/25 10:53:42;;;;;;;379.30;343.40;;;;;;;;;;5013313;28;20049;-60
2023/09/25 10:56:08;;;;;;;187.23;174.10;;;;;;;;;;5023262;28;20017;-60
2023/09/25 10:58:33;;;;;;;375.80;342.63;;;;;;;;;;5001387;28;20029;-59
2023/09/25 11:00:59;;;;;;;309.97;285.33;;;;;;;;;;5024080;28;20377;-60
2023/09/25 11:03:24;;;;;;;218.00;202.20;;;;;;;;;;5022830;28;20496;-59
2023/09/25 11:05:49;;;;;;;201.83;189.33;;;;;;;;;;5023562;28;20394;-59
2023/09/25 11:08:16;;;;;;;207.30;193.37;;;;;;;;;;5027882;28;20511;-58
2023/09/25 11:10:41;;;;;;;239.57;220.50;;;;;;;;;;5024828;28;20026;-58
2023/09/25 11:13:06;;;;;;;412.87;383.13;;;;;;;;;;5021177;28;20026;-59
2023/09/25 11:15:36;;;;;;;234.23;217.00;;;;;;;;;;5018478;28;20125;-58
2023/09/25 11:18:01;;;;;;;276.33;254.48;;;;;;;;;;5021100;28;20456;-59
2023/09/25 11:20:30;;;;;;;246.33;225.57;;;;;;;;;;5027725;28;20028;-57
2023/09/25 11:23:14;;;;;;;223.52;209.18;;;;;;;;;;5020272;28;20033;-58
2023/09/25 11:25:43;;;;;;;223.65;207.38;;;;;;;;;;5024743;28;20493;-60
2023/09/25 11:28:08;;;;;;;315.83;291.20;;;;;;;;;;5028802;28;20026;-60
2023/09/25 11:30:34;;;;;;;237.32;219.02;;;;;;;;;;5024469;28;20092;-59
2023/09/25 11:33:04;;;;;;;195.25;182.07;;;;;;;;;;5026061;28;20117;-57
2023/09/25 11:35:29;;;;;;;223.63;208.40;;;;;;;;;;5024733;28;20017;-58
2023/09/25 11:37:59;;;;;;;371.77;334.97;;;;;;;;;;5015077;28;20093;-60
2023/09/25 11:40:24;;;;;;;286.38;265.60;;;;;;;;;;5020686;28;20010;-59
2023/09/25 11:42:49;;;;;;;330.35;305.98;;;;;;;;;;5027508;28;20030;-58
2023/09/25 11:45:15;;;;;;;361.00;336.10;;;;;;;;;;5024431;28;20428;-60
2023/09/25 11:47:41;;;;;;;;;;;;;;;;;;5025882;28;20104;-58
2023/09/25 11:50:06;;;;;;;353.65;326.77;;;;;;;;;;5024048;28;19996;-58
2023/09/25 11:52:32;;;;;;;187.70;175.05;;;;;;;;;;5004716;28;20356;-60
2023/09/25 11:54:57;;;;;;;224.20;208.98;;;;;;;;;;5023232;28;20440;-58
2023/09/25 11:57:22;;;;;;;256.87;238.97;;;;;;;;;;5020820;28;20026;-58
2023/09/25 11:59:47;;;;;;;253.33;232.53;;;;;;;;;;5021897;28;20076;-60
2023/09/25 12:02:13;;;;;;;358.95;332.17;;;;;;;;;;5033692;28;20075;-60
2023/09/25 12:04:39;;;;;;;239.13;223.80;;;;;;;;;;5022986;28;20406;-60
2023/09/25 12:07:05;;;;;;;340.85;309.33;;;;;;;;;;5020838;28;20590;-59
2023/09/25 12:09:30;;;;;;;315.65;290.30;;;;;;;;;;5024230;28;20022;-59
2023/09/25 12:11:56;;;;;;;488.80;450.57;;;;;;;;;;5009466;28;20021;-57
2023/09/25 12:14:21;;;;;;;451.20;415.73;;;;;;;;;;5025262;28;20079;-58
2023/09/25 12:16:46;;;;;;;299.93;273.67;;;;;;;;;;5025089;28;20101;-58
2023/09/25 12:19:11;;;;;;;251.23;233.10;;;;;;;;;;5023265;28;20029;-59
2023/09/25 12:21:37;;;;;;;312.73;287.67;;;;;;;;;;5025660;28;20026;-59
2023/09/25 12:24:05;;;;;;;307.63;284.27;;;;;;;;;;5023675;28;20026;-58
2023/09/25 12:26:30;;;;;;;336.08;309.95;;;;;;;;;;5020461;28;20105;-59
2023/09/25 12:28:55;;;;;;;274.10;254.60;;;;;;;;;;5010805;28;20120;-59
2023/09/25 12:31:21;;;;;;;408.70;378.10;;;;;;;;;;5019646;28;20029;-57
2023/09/25 12:33:46;;;;;;;337.73;311.10;;;;;;;;;;5013263;28;20033;-60
2023/09/25 12:36:11;;;;;;;215.87;197.33;;;;;;;;;;5016055;28;20109;-57
2023/09/25 12:38:36;;;;;;;327.70;300.07;;;;;;;;;;5027678;28;20022;-59
2023/09/25 12:41:03;;;;;;;272.60;249.03;;;;;;;;;;5023498;28;20014;-60
2023/09/25 12:43:28;;;;;;;363.02;333.45;;;;;;;;;;5026411;28;20025;-59
2023/09/25 12:45:53;;;;;;;159.47;148.03;;;;;;;;;;5025208;28;20149;-58
2023/09/25 12:48:19;;;;;;;430.53;398.17;;;;;;;;;;5016888;28;20485;-59
2023/09/25 12:50:44;;;;;;;240.73;221.98;;;;;;;;;;5017569;28;20030;-59
2023/09/25 12:53:09;;;;;;;335.00;307.20;;;;;;;;;;4994838;28;20030;-58
2023/09/25 12:55:34;;;;;;;231.90;216.00;;;;;;;;;;5019262;28;20104;-58
2023/09/25 12:58:00;;;;;;;256.83;234.43;;;;;;;;;;5030699;28;20017;-58
2023/09/25 13:00:25;;;;;;;333.23;303.97;;;;;;;;;;5019296;28;20485;-59
2023/09/25 13:02:50;;;;;;;319.30;295.73;;;;;;;;;;5019504;28;20694;-59
2023/09/25 13:05:16;;;;;;;327.58;303.77;;;;;;;;;;5023045;28;20036;-60
2023/09/25 13:07:41;;;;;;;308.57;284.17;;;;;;;;;;5026463;28;20030;-58
2023/09/25 13:10:07;;;;;;;345.50;319.73;;;;;;;;;;5018076;28;20020;-58
2023/09/25 13:12:32;;;;;;;255.70;237.07;;;;;;;;;;5015633;28;20441;-58
2023/09/25 13:14:58;;;;;;;383.13;352.27;;;;;;;;;;5022240;28;20022;-58
2023/09/25 13:17:23;;;;;;;219.20;201.65;;;;;;;;;;5027083;28;20032;-59
2023/09/25 13:19:48;;;;;;;373.37;342.60;;;;;;;;;;5023138;28;20021;-59
2023/09/25 13:22:14;;;;;;;462.13;418.77;;;;;;;;;;5026846;28;20464;-57
2023/09/25 13:24:39;;;;;;;394.00;362.58;;;;;;;;;;5022632;28;20013;-60
2023/09/25 13:27:06;;;;;;;337.40;311.30;;;;;;;;;;5013707;28;20156;-58
2023/09/25 13:29:31;;;;;;;376.23;347.00;;;;;;;;;;5010017;28;20049;-59
2023/09/25 13:31:56;;;;;;;285.40;263.67;;;;;;;;;;5024181;28;20115;-59
2023/09/25 13:34:21;;;;;;;293.47;270.27;;;;;;;;;;5025106;28;20591;-60
2023/09/25 13:36:48;;;;;;;182.23;169.27;;;;;;;;;;5025477;28;20021;-58
2023/09/25 13:39:14;;;;;;;375.50;346.55;;;;;;;;;;5018737;28;20112;-59
2023/09/25 13:41:39;;;;;;;366.00;336.70;;;;;;;;;;5019397;28;20062;-60
2023/09/25 13:44:04;;;;;;;327.13;299.80;;;;;;;;;;5022791;28;20474;-59
2023/09/25 13:46:30;;;;;;;390.10;357.25;;;;;;;;;;5022737;28;20104;-58
2023/09/25 13:48:55;;;;;;;372.60;342.15;;;;;;;;;;5012606;28;20013;-60
2023/09/25 13:51:20;;;;;;;402.50;372.43;;;;;;;;;;5015827;28;20444;-60
2023/09/25 13:53:45;;;;;;;357.07;327.60;;;;;;;;;;5012667;28;20030;-58
2023/09/25 13:56:10;;;;;;;318.45;293.48;;;;;;;;;;5006544;28;20022;-57
2023/09/25 13:58:35;;;;;;;274.00;255.33;;;;;;;;;;5016401;28;20033;-59
2023/09/25 14:01:02;;;;;;;258.37;239.40;;;;;;;;;;5013341;28;20382;-57
2023/09/25 14:03:28;;;;;;;272.55;254.95;;;;;;;;;;5015501;28;20048;-59
2023/09/25 14:05:53;;;;;;;244.33;227.43;;;;;;;;;;5015127;28;20466;-59